createdAt,value
2023-01-11T00:00:56.760Z,33.63
2023-01-11T00:03:59.676Z,30.58
2023-01-11T00:07:01.986Z,32.63
2023-01-11T00:10:04.959Z,31.50
2023-01-11T00:13:07.650Z,32.85
2023-01-11T00:16:10.400Z,33.80
2023-01-11T00:19:13.088Z,31.45
2023-01-11T00:22:15.405Z,35.42
2023-01-11T00:25:18.027Z,34.47
2023-01-11T00:28:20.497Z,31.13
2023-01-11T00:31:22.934Z,31.38
2023-01-11T00:34:26.656Z,31.25
2023-01-11T00:37:28.859Z,40.08
2023-01-11T00:40:31.269Z,32.45
2023-01-11T00:43:52.004Z,31.45
2023-01-11T00:47:12.937Z,29.73
2023-01-11T00:50:15.481Z,28.27
2023-01-11T00:53:19.522Z,30.95
2023-01-11T00:56:21.779Z,28.88
2023-01-11T00:59:24.068Z,25.75
2023-01-11T01:02:26.339Z,27.77
2023-01-11T01:05:28.709Z,30.88
2023-01-11T01:08:31.071Z,31.13
2023-01-11T01:11:33.454Z,31.63
2023-01-11T01:14:36.430Z,32.28
2023-01-11T01:17:38.775Z,33.47
2023-01-11T01:20:41.442Z,33.92
2023-01-11T01:23:43.712Z,32.65
2023-01-11T01:26:46.094Z,29.17
2023-01-11T01:29:48.460Z,30.38
2023-01-11T01:32:50.748Z,29.52
2023-01-11T01:35:53.070Z,33.13
2023-01-11T01:38:55.377Z,29.88
2023-01-11T01:41:58.055Z,26.95
2023-01-11T01:45:07.125Z,28.95
2023-01-11T01:48:12.241Z,30.27
2023-01-11T01:51:20.040Z,29.05
2023-01-11T01:54:30.589Z,27.77
2023-01-11T01:57:34.874Z,25.73
2023-01-11T02:00:40.485Z,28.02
2023-01-11T02:03:43.190Z,26.08
2023-01-11T02:06:46.062Z,27.95
2023-01-11T02:09:53.060Z,26.80
2023-01-11T02:13:00.981Z,28.75
2023-01-11T02:16:09.288Z,26.77
2023-01-11T02:19:38.868Z,26.05
2023-01-11T02:22:59.622Z,27.48
2023-01-11T02:26:29.986Z,29.00
2023-01-11T02:29:50.413Z,28.20
2023-01-11T02:33:04.515Z,29.38
2023-01-11T02:36:28.278Z,34.83
2023-01-11T02:39:49.533Z,29.77
2023-01-11T02:43:17.778Z,26.13
2023-01-11T02:46:47.302Z,31.92
2023-01-11T02:50:14.182Z,30.25
2023-01-11T02:53:30.404Z,34.38
2023-01-11T02:56:36.770Z,35.75
2023-01-11T02:59:40.671Z,32.00
2023-01-11T03:02:43.008Z,33.38
2023-01-11T03:05:53.066Z,34.05
2023-01-11T03:09:07.323Z,32.55
2023-01-11T03:12:52.511Z,32.63
2023-01-11T03:19:19.344Z,32.10
2023-01-11T03:22:33.761Z,34.08
2023-01-11T03:28:46.634Z,33.45
2023-01-11T03:32:03.957Z,32.80
2023-01-11T03:35:09.373Z,30.52
2023-01-11T03:38:53.549Z,29.73
2023-01-11T03:41:59.259Z,34.80
2023-01-11T03:45:03.250Z,34.67
2023-01-11T03:51:11.484Z,31.75
2023-01-11T03:54:23.827Z,32.95
2023-01-11T03:57:34.696Z,34.35
2023-01-11T04:00:37.617Z,38.25
2023-01-11T04:03:39.899Z,33.80
2023-01-11T04:06:42.220Z,35.97
2023-01-11T04:09:44.671Z,36.45
2023-01-11T04:12:48.443Z,42.60
2023-01-11T04:15:50.806Z,40.03
2023-01-11T04:18:53.092Z,37.90
2023-01-11T04:21:55.540Z,36.20
2023-01-11T04:24:57.862Z,34.97
2023-01-11T04:28:00.487Z,34.45
2023-01-11T04:31:02.865Z,36.35
2023-01-11T04:34:05.226Z,39.13
2023-01-11T04:37:07.703Z,45.60
2023-01-11T04:40:10.669Z,35.10
2023-01-11T04:43:12.977Z,33.92
2023-01-11T04:46:15.184Z,31.00
2023-01-11T04:49:17.679Z,30.60
2023-01-11T04:52:21.304Z,30.73
2023-01-11T04:55:23.665Z,25.90
2023-01-11T04:58:26.017Z,29.02
2023-01-11T05:01:28.478Z,31.73
2023-01-11T05:04:30.960Z,30.38
2023-01-11T05:07:33.603Z,29.15
2023-01-11T05:10:36.177Z,31.60
2023-01-11T05:13:44.404Z,30.25
2023-01-11T05:16:47.627Z,33.42
2023-01-11T05:19:50.296Z,31.08
2023-01-11T05:22:52.681Z,31.13
2023-01-11T05:25:54.923Z,26.70
2023-01-11T05:28:59.668Z,29.42
2023-01-11T05:32:02.036Z,27.42
2023-01-11T05:35:04.456Z,28.77
2023-01-11T05:38:06.788Z,27.67
2023-01-11T05:41:10.830Z,27.73
2023-01-11T05:47:33.944Z,26.08
2023-01-11T05:50:36.246Z,27.15
2023-01-11T05:53:38.600Z,27.60
2023-01-11T05:56:42.765Z,28.15
2023-01-11T05:59:45.404Z,27.83
2023-01-11T06:02:47.898Z,28.85
2023-01-11T06:05:50.960Z,27.25
2023-01-11T06:08:53.348Z,28.02
2023-01-11T06:11:55.676Z,26.98
2023-01-11T06:14:58.043Z,26.63
2023-01-11T06:18:00.387Z,29.10
2023-01-11T06:21:03.293Z,25.17
2023-01-11T06:24:05.855Z,26.33
2023-01-11T06:27:08.209Z,28.52
2023-01-11T06:30:11.380Z,26.67
2023-01-11T06:33:13.763Z,25.10
2023-01-11T06:36:16.771Z,27.48
2023-01-11T06:39:19.901Z,25.50
2023-01-11T06:42:22.550Z,26.33
2023-01-11T06:45:24.876Z,47.90
2023-01-11T06:48:28.303Z,27.73
2023-01-11T06:51:30.632Z,19.48
2023-01-11T06:54:33.272Z,31.17
2023-01-11T06:57:36.088Z,28.10
2023-01-11T07:00:38.819Z,32.78
2023-01-11T07:03:41.769Z,24.50
2023-01-11T07:06:44.292Z,32.92
2023-01-11T07:09:47.741Z,32.05
2023-01-11T07:12:50.344Z,37.95
2023-01-11T07:15:54.414Z,33.85
2023-01-11T07:18:56.870Z,32.03
2023-01-11T07:21:59.419Z,39.85
2023-01-11T07:25:02.151Z,35.05
2023-01-11T07:28:07.031Z,34.83
2023-01-11T07:31:09.529Z,29.75
2023-01-11T07:34:11.920Z,25.90
2023-01-11T07:37:29.270Z,27.33
2023-01-11T07:40:32.155Z,22.55
2023-01-11T07:43:34.749Z,23.60
2023-01-11T07:46:37.230Z,23.67
2023-01-11T07:49:39.751Z,20.13
2023-01-11T07:52:50.997Z,24.73
2023-01-11T07:55:55.582Z,22.77
2023-01-11T07:58:58.151Z,20.52
2023-01-11T08:02:00.830Z,19.55
2023-01-11T08:05:03.496Z,20.85
2023-01-11T08:08:06.415Z,20.85
2023-01-11T08:11:27.883Z,20.00
2023-01-11T08:14:39.543Z,16.80
2023-01-11T08:17:41.962Z,15.50
2023-01-11T08:20:45.922Z,18.02
2023-01-11T08:23:48.597Z,17.83
2023-01-11T08:26:51.165Z,21.80
2023-01-11T08:29:53.728Z,26.05
2023-01-11T08:32:57.672Z,21.60
2023-01-11T08:39:03.394Z,20.13
2023-01-11T08:42:05.814Z,16.65
2023-01-11T08:45:08.680Z,19.08
2023-01-11T08:48:12.386Z,14.98
2023-01-11T08:51:15.704Z,16.35
2023-01-11T08:54:18.092Z,14.07
2023-01-11T08:57:20.476Z,18.23
2023-01-11T09:00:22.995Z,16.35
2023-01-11T09:03:25.739Z,15.73
2023-01-11T09:06:28.267Z,18.48
2023-01-11T09:09:31.480Z,16.17
2023-01-11T09:12:33.958Z,15.50
2023-01-11T09:15:36.255Z,26.35
2023-01-11T09:18:38.593Z,25.10
2023-01-11T09:21:41.077Z,17.50
2023-01-11T09:24:43.589Z,18.02
2023-01-11T09:27:47.368Z,13.93
2023-01-11T09:30:50.129Z,15.32
2023-01-11T09:33:52.665Z,14.05
2023-01-11T09:36:57.610Z,14.48
2023-01-11T09:40:00.148Z,17.23
2023-01-11T09:43:05.426Z,15.23
2023-01-11T09:46:10.511Z,12.13
2023-01-11T09:49:35.345Z,14.32
2023-01-11T09:52:42.250Z,13.52
2023-01-11T09:55:47.170Z,15.30
2023-01-11T09:58:50.881Z,14.88
2023-01-11T10:02:05.659Z,13.27
2023-01-11T10:05:23.574Z,11.82
2023-01-11T10:18:39.949Z,14.20
2023-01-11T10:20:27.819Z,15.10
2023-01-11T10:23:41.926Z,15.93
2023-01-11T10:26:44.338Z,13.55
2023-01-11T10:29:47.696Z,16.48
2023-01-11T10:32:58.206Z,12.05
2023-01-11T10:36:27.580Z,12.35
2023-01-11T10:40:01.743Z,13.10
2023-01-11T10:43:21.891Z,13.55
2023-01-11T10:46:26.514Z,14.77
2023-01-11T10:50:01.015Z,12.73
2023-01-11T10:53:27.341Z,14.40
2023-01-11T10:57:03.306Z,19.30
2023-01-11T11:00:35.416Z,15.90
2023-01-11T11:03:59.650Z,18.02
2023-01-11T11:07:13.254Z,17.30
2023-01-11T11:10:24.763Z,12.77
2023-01-11T11:13:45.692Z,14.63
2023-01-11T11:17:06.381Z,14.50
2023-01-11T11:20:18.351Z,13.77
2023-01-11T11:23:22.823Z,18.42
2023-01-11T11:26:29.791Z,11.60
2023-01-11T11:29:32.202Z,12.63
2023-01-11T11:32:39.391Z,10.98
2023-01-11T11:35:45.816Z,14.10
2023-01-11T11:39:11.503Z,14.77
2023-01-11T11:42:18.125Z,13.40
2023-01-11T11:45:20.682Z,12.25
2023-01-11T11:48:25.467Z,11.95
2023-01-11T11:51:28.114Z,11.07
2023-01-11T11:54:53.505Z,11.13
2023-01-11T11:57:56.604Z,10.05
2023-01-11T12:00:59.208Z,11.02
2023-01-11T12:04:05.217Z,12.32
2023-01-11T12:07:12.919Z,10.20
2023-01-11T12:10:21.674Z,10.98
2023-01-11T12:13:42.476Z,9.25
2023-01-11T12:16:46.104Z,73.07
2023-01-11T12:19:48.686Z,35.75
2023-01-11T12:22:52.108Z,15.48
2023-01-11T12:25:57.028Z,12.27
2023-01-11T12:29:27.011Z,12.48
2023-01-11T12:32:56.511Z,11.95
2023-01-11T12:36:16.825Z,12.95
2023-01-11T12:39:40.685Z,21.33
2023-01-11T12:43:13.277Z,12.30
2023-01-11T12:46:30.892Z,19.35
2023-01-11T12:49:51.959Z,14.85
2023-01-11T12:53:24.112Z,15.05
2023-01-11T12:57:14.226Z,22.10
2023-01-11T13:00:23.078Z,44.40
2023-01-11T13:03:49.455Z,46.38
2023-01-11T13:06:53.858Z,18.40
2023-01-11T13:10:03.739Z,12.30
2023-01-11T13:13:29.138Z,16.42
2023-01-11T13:16:40.457Z,11.00
2023-01-11T13:19:45.699Z,11.85
2023-01-11T13:22:55.097Z,11.43
2023-01-11T13:25:58.492Z,16.60
2023-01-11T13:29:25.072Z,9.80
2023-01-11T13:32:34.495Z,9.85
2023-01-11T13:35:43.044Z,20.73
2023-01-11T13:38:52.522Z,8.70
2023-01-11T13:41:58.781Z,18.35
2023-01-11T13:45:13.691Z,12.02
2023-01-11T13:48:29.465Z,14.95
2023-01-11T13:51:55.005Z,11.20
2023-01-11T13:55:26.927Z,16.10
2023-01-11T13:58:53.249Z,13.38
2023-01-11T14:02:01.290Z,10.73
2023-01-11T14:05:12.809Z,10.75
2023-01-11T14:08:41.689Z,9.75
2023-01-11T14:11:53.203Z,10.30
2023-01-11T14:15:01.831Z,11.38
2023-01-11T14:18:22.671Z,13.77
2023-01-11T14:21:35.307Z,11.40
2023-01-11T14:24:39.419Z,10.45
2023-01-11T14:31:09.131Z,10.85
2023-01-11T14:34:28.112Z,11.68
2023-01-11T14:38:05.170Z,17.08
2023-01-11T14:41:30.067Z,37.80
2023-01-11T14:44:59.735Z,48.70
2023-01-11T14:48:08.117Z,20.35
2023-01-11T14:51:22.138Z,33.17
2023-01-11T14:54:34.204Z,16.70
2023-01-11T14:57:42.216Z,25.20
2023-01-11T15:00:44.511Z,14.13
2023-01-11T15:03:47.852Z,12.65
2023-01-11T15:06:55.139Z,15.23
2023-01-11T15:09:59.796Z,13.30
2023-01-11T15:13:06.003Z,11.70
2023-01-11T15:16:37.178Z,10.65
2023-01-11T15:19:43.011Z,11.30
2023-01-11T15:22:46.222Z,13.52
2023-01-11T15:25:50.782Z,11.73
2023-01-11T15:29:01.560Z,12.13
2023-01-11T15:32:07.710Z,12.65
2023-01-11T15:35:25.362Z,11.73
2023-01-11T15:38:42.875Z,12.88
2023-01-11T15:42:06.220Z,12.43
2023-01-11T15:45:27.042Z,13.13
2023-01-11T15:48:35.128Z,11.95
2023-01-11T15:51:56.446Z,12.00
2023-01-11T15:55:23.445Z,12.90
2023-01-11T15:58:58.171Z,14.45
2023-01-11T16:02:21.037Z,12.75
2023-01-11T16:05:28.627Z,15.32
2023-01-11T16:08:44.881Z,18.83
2023-01-11T16:11:56.277Z,15.32
2023-01-11T16:15:07.822Z,13.80
2023-01-11T16:18:22.324Z,16.50
2023-01-11T16:21:44.842Z,13.18
2023-01-11T16:24:52.615Z,12.60
2023-01-11T16:27:56.496Z,14.25
2023-01-11T16:31:02.791Z,13.80
2023-01-11T16:34:08.039Z,13.48
2023-01-11T16:37:22.186Z,13.88
2023-01-11T16:40:30.520Z,13.05
2023-01-11T16:43:34.244Z,15.63
2023-01-11T16:47:04.610Z,12.73
2023-01-11T16:50:22.285Z,14.15
2023-01-11T16:53:26.446Z,12.27
2023-01-11T16:59:31.673Z,13.02
2023-01-11T17:02:40.224Z,21.25
2023-01-11T17:05:42.659Z,15.38
2023-01-11T17:08:57.331Z,14.93
2023-01-11T17:11:59.693Z,13.48
2023-01-11T17:15:26.727Z,15.38
2023-01-11T17:18:29.112Z,13.90
2023-01-11T17:21:31.519Z,14.02
2023-01-11T17:24:46.978Z,13.57
2023-01-11T17:28:01.432Z,16.17
2023-01-11T17:31:03.862Z,14.93
2023-01-11T17:34:24.953Z,13.98
2023-01-11T17:37:27.330Z,13.85
2023-01-11T17:40:38.147Z,15.35
2023-01-11T17:43:59.285Z,15.27
2023-01-11T17:47:03.313Z,19.63
2023-01-11T17:50:06.600Z,19.63
2023-01-11T17:53:18.081Z,55.80
2023-01-11T17:56:38.049Z,17.33
2023-01-11T17:59:40.761Z,14.70
2023-01-11T18:02:43.151Z,15.55
2023-01-11T18:05:45.725Z,15.55
2023-01-11T18:08:50.887Z,16.70
2023-01-11T18:11:54.125Z,16.00
2023-01-11T18:15:01.248Z,12.60
2023-01-11T18:18:06.031Z,21.50
2023-01-11T18:21:26.319Z,15.43
2023-01-11T18:24:30.564Z,17.92
2023-01-11T18:27:35.117Z,16.23
2023-01-11T18:30:42.312Z,16.05
2023-01-11T18:33:44.962Z,18.27
2023-01-11T18:36:47.822Z,28.23
2023-01-11T18:39:51.583Z,20.77
2023-01-11T18:42:54.206Z,20.00
2023-01-11T18:45:56.601Z,20.20
2023-01-11T18:48:59.052Z,17.83
2023-01-11T18:52:01.491Z,15.90
2023-01-11T18:55:04.740Z,20.23
2023-01-11T18:58:07.381Z,18.67
2023-01-11T19:01:10.319Z,17.88
2023-01-11T19:04:12.826Z,19.88
2023-01-11T19:07:15.643Z,21.92
2023-01-11T19:10:21.387Z,21.95
2023-01-11T19:13:23.928Z,32.53
2023-01-11T19:16:26.330Z,27.60
2023-01-11T19:19:33.595Z,76.22
2023-01-11T19:22:39.878Z,41.35
2023-01-11T19:25:43.551Z,23.65
2023-01-11T19:28:46.513Z,15.40
2023-01-11T19:31:50.061Z,19.42
2023-01-11T19:35:00.884Z,18.95
2023-01-11T19:38:03.842Z,22.05
2023-01-11T19:41:13.067Z,25.40
2023-01-11T19:44:20.808Z,28.05
2023-01-11T19:47:26.690Z,19.67
2023-01-11T19:50:30.488Z,21.20
2023-01-11T19:53:33.458Z,21.58
2023-01-11T19:56:35.863Z,22.13
2023-01-11T19:59:38.404Z,25.02
2023-01-11T20:02:40.896Z,29.95
2023-01-11T20:05:43.295Z,43.90
2023-01-11T20:08:45.675Z,24.92
2023-01-11T20:11:52.325Z,28.15
2023-01-11T20:15:02.859Z,24.90
2023-01-11T20:18:07.035Z,24.95
2023-01-11T20:21:13.899Z,26.10
2023-01-11T20:24:17.657Z,31.33
2023-01-11T20:30:26.245Z,27.95
2023-01-11T20:33:32.215Z,26.50
2023-01-11T20:36:37.943Z,25.65
2023-01-11T20:39:41.627Z,26.27
2023-01-11T20:42:44.664Z,31.30
2023-01-11T20:45:59.774Z,34.03
2023-01-11T20:49:02.629Z,30.73
2023-01-11T20:52:06.374Z,35.13
2023-01-11T20:55:09.641Z,31.85
2023-01-11T20:58:15.355Z,32.43
2023-01-11T21:01:29.604Z,27.85
2023-01-11T21:04:41.247Z,28.52
2023-01-11T21:07:44.176Z,32.03
2023-01-11T21:10:46.539Z,29.40
2023-01-11T21:13:48.877Z,28.33
2023-01-11T21:16:54.907Z,34.28
2023-01-11T21:19:57.331Z,28.92
2023-01-11T21:22:59.872Z,34.22
2023-01-11T21:26:04.723Z,32.03
2023-01-11T21:29:07.042Z,32.85
2023-01-11T21:32:09.455Z,25.05
2023-01-11T21:35:11.787Z,30.20
2023-01-11T21:38:14.163Z,30.23
2023-01-11T21:41:18.851Z,24.00
2023-01-11T21:44:26.449Z,26.70
2023-01-11T21:47:31.479Z,27.15
2023-01-11T21:50:34.186Z,23.08
2023-01-11T21:53:37.562Z,26.75
2023-01-11T21:56:45.580Z,26.40
2023-01-11T21:59:50.196Z,25.48
2023-01-11T22:02:54.756Z,28.02
2023-01-11T22:06:01.591Z,28.02
2023-01-11T22:09:05.500Z,26.23
2023-01-11T22:12:07.954Z,26.60
2023-01-11T22:15:11.184Z,23.88
2023-01-11T22:18:14.797Z,25.30
2023-01-11T22:21:18.792Z,17.70
2023-01-11T22:24:21.165Z,21.42
2023-01-11T22:27:26.211Z,21.58
2023-01-11T22:30:30.419Z,20.10
2023-01-11T22:36:36.953Z,24.25
2023-01-11T22:39:40.888Z,20.40
2023-01-11T22:42:47.323Z,23.80
2023-01-11T22:45:57.905Z,20.85
2023-01-11T22:49:00.919Z,21.48
2023-01-11T22:52:03.316Z,21.83
2023-01-11T22:55:06.849Z,20.90
2023-01-11T22:58:09.262Z,17.05
2023-01-11T23:01:38.920Z,24.45
2023-01-11T23:04:46.903Z,31.95
2023-01-11T23:07:52.171Z,25.75
2023-01-11T23:10:59.887Z,23.77
2023-01-11T23:14:05.748Z,27.73
2023-01-11T23:17:11.778Z,29.75
2023-01-11T23:20:15.503Z,23.50
2023-01-11T23:23:17.991Z,36.30
2023-01-11T23:26:21.522Z,26.50
2023-01-11T23:29:28.721Z,25.58
2023-01-11T23:32:31.063Z,56.15
2023-01-11T23:35:33.402Z,23.08
2023-01-11T23:38:35.631Z,22.20
2023-01-11T23:41:57.159Z,24.40
2023-01-11T23:44:59.543Z,29.60
2023-01-11T23:48:01.867Z,22.65
2023-01-11T23:51:05.340Z,21.90
2023-01-11T23:54:08.204Z,24.65
2023-01-11T23:57:12.587Z,32.67
